Time;durP1;ratioP1;P1;durP2;ratioP2;P2;SDS_P1;SDS_P2;PMS_P1;PMS_P2;Temp;Humidity;BMP_temperature;BMP_pressure;BME280_temperature;BME280_humidity;BME280_pressure;Samples;Min_cycle;Max_cycle;Signal;HPM_P1;HPM_P2
2022/05/23 00:08:15;;;;;;;4.73;2.10;;;16.80;99.90;;;;;;20826583;28;20041;-76
2022/05/23 00:18:16;;;;;;;7.45;2.80;;;16.90;99.90;;;;;;20827317;28;20519;-77
2022/05/23 00:28:17;;;;;;;5.90;2.57;;;16.80;99.90;;;;;;20826404;28;20044;-77
2022/05/23 00:38:18;;;;;;;9.23;2.73;;;16.80;99.90;;;;;;20821130;28;20456;-77
2022/05/23 00:48:25;;;;;;;6.77;2.50;;;16.60;99.90;;;;;;20826041;28;20034;-77
2022/05/23 00:58:30;;;;;;;7.22;2.50;;;16.50;99.90;;;;;;20809671;28;20288;-77
2022/05/23 01:08:35;;;;;;;4.85;2.25;;;16.40;99.90;;;;;;20840369;28;20499;-76
2022/05/23 01:18:36;;;;;;;3.15;2.40;;;16.30;99.90;;;;;;20821375;28;20061;-76
2022/05/23 01:28:38;;;;;;;3.77;2.47;;;16.10;99.90;;;;;;20822262;28;20443;-77
2022/05/23 01:38:42;;;;;;;8.07;2.80;;;16.10;99.90;;;;;;20820756;28;20033;-77
2022/05/23 01:49:00;;;;;;;6.15;2.45;;;16.10;99.90;;;;;;20824540;28;20511;-77
2022/05/23 02:09:27;;;;;;;3.63;1.98;;;16.20;99.90;;;;;;20841040;22;20491;-77
2022/05/23 02:19:41;;;;;;;2.25;2.00;;;16.00;99.90;;;;;;20838569;28;20037;-78
2022/05/23 02:29:48;;;;;;;5.10;2.63;;;16.00;99.90;;;;;;20822729;28;20056;-78
2022/05/23 02:39:49;;;;;;;5.47;3.33;;;15.90;99.90;;;;;;20837801;28;20033;-78
2022/05/23 02:49:52;;;;;;;5.47;2.63;;;15.90;99.90;;;;;;20837095;28;20116;-78
2022/05/23 03:00:12;;;;;;;9.35;3.78;;;15.80;99.90;;;;;;20822314;28;20034;-77
2022/05/23 03:10:14;;;;;;;7.95;3.80;;;15.80;99.90;;;;;;20835909;28;20082;-77
2022/05/23 03:20:16;;;;;;;4.87;2.90;;;15.70;99.90;;;;;;20854509;28;20052;-79
2022/05/23 03:30:18;;;;;;;6.97;3.10;;;15.80;99.90;;;;;;20858979;28;20415;-80
2022/05/23 03:40:28;;;;;;;6.50;3.50;;;15.80;99.90;;;;;;20819397;28;20040;-79
2022/05/23 03:50:31;;;;;;;9.32;4.85;;;15.70;99.90;;;;;;20836094;28;20037;-79
2022/05/23 04:00:34;;;;;;;12.43;4.53;;;15.50;99.90;;;;;;20846994;28;20044;-80
2022/05/23 04:10:35;;;;;;;5.40;2.50;;;15.40;99.90;;;;;;20859026;28;20097;-80
2022/05/23 04:20:37;;;;;;;;;;;15.70;99.90;;;;;;20869381;28;20036;-82
2022/05/23 04:30:51;;;;;;;7.57;3.60;;;15.90;99.90;;;;;;20871346;28;20311;-82
2022/05/23 04:40:57;;;;;;;7.90;3.75;;;15.50;99.90;;;;;;20881833;28;20025;-79
2022/05/23 04:50:59;;;;;;;8.75;3.75;;;15.60;99.90;;;;;;20845051;28;20454;-78
2022/05/23 05:01:06;;;;;;;5.00;3.13;;;15.70;99.90;;;;;;20867185;28;20033;-79
2022/05/23 05:11:07;;;;;;;8.37;3.23;;;16.00;99.90;;;;;;20867920;28;20025;-81
2022/05/23 05:21:09;;;;;;;15.00;4.90;;;16.10;99.90;;;;;;20864660;28;20036;-80
2022/05/23 05:31:50;;;;;;;;;;;16.30;99.90;;;;;;20858362;28;20038;-78
2022/05/23 05:41:59;;;;;;;4.82;3.15;;;16.40;99.90;;;;;;20862241;28;19916;-79
2022/05/23 05:52:10;;;;;;;7.13;3.90;;;16.50;99.90;;;;;;20855557;28;20380;-78
2022/05/23 06:02:33;;;;;;;5.72;3.55;;;16.20;99.90;;;;;;20836058;28;20037;-78
2022/05/23 06:12:34;;;;;;;4.43;2.90;;;16.10;99.90;;;;;;20831288;28;20041;-78
2022/05/23 06:23:01;;;;;;;8.90;2.85;;;16.80;99.90;;;;;;20830020;28;20045;-78
2022/05/23 06:33:04;;;;;;;3.70;2.38;;;17.20;99.90;;;;;;20831776;28;20067;-78
2022/05/23 06:43:17;;;;;;;5.05;2.65;;;17.60;99.90;;;;;;20833213;28;20033;-78
2022/05/23 06:53:23;;;;;;;6.90;3.25;;;18.20;99.90;;;;;;20840526;28;20571;-78
2022/05/23 07:03:45;;;;;;;45.15;11.02;;;19.60;99.90;;;;;;20856733;28;20029;-78
2022/05/23 07:13:46;;;;;;;5.95;3.08;;;19.40;99.90;;;;;;20839634;28;20096;-78
2022/05/23 07:23:48;;;;;;;7.65;3.00;;;19.80;99.90;;;;;;20863319;28;20084;-78
2022/05/23 07:34:06;;;;;;;5.97;2.88;;;19.80;99.90;;;;;;20829949;28;20507;-78
2022/05/23 07:44:10;;;;;;;4.28;2.65;;;20.70;99.90;;;;;;20831086;28;20025;-78
2022/05/23 08:04:32;;;;;;;6.82;2.72;;;21.20;99.90;;;;;;20833224;28;20030;-78
2022/05/23 08:14:36;;;;;;;5.55;2.53;;;21.70;99.90;;;;;;20872419;22;20040;-82
2022/05/23 08:24:44;;;;;;;4.43;2.90;;;22.60;99.90;;;;;;20836361;28;20095;-82
2022/05/23 08:34:45;;;;;;;5.55;2.83;;;23.10;99.90;;;;;;20844811;28;20029;-81
2022/05/23 08:45:11;;;;;;;7.78;2.60;;;22.00;99.90;;;;;;20841644;28;20037;-82
2022/05/23 08:55:26;;;;;;;4.75;3.13;;;23.70;99.90;;;;;;20840723;28;20040;-82
2022/05/23 09:05:53;;;;;;;7.47;3.50;;;24.10;99.90;;;;;;20854177;28;20033;-82
2022/05/23 09:16:04;;;;;;;6.38;2.60;;;25.10;99.90;;;;;;20855182;28;20044;-82
2022/05/23 09:26:13;;;;;;;7.30;2.65;;;27.10;99.90;;;;;;20849060;28;20497;-82
2022/05/23 09:36:20;;;;;;;5.25;3.33;;;26.20;99.90;;;;;;20844938;28;20029;-82
2022/05/23 09:56:45;;;;;;;10.82;2.15;;;16.50;99.90;;;;;;20834280;28;20065;-84
2022/05/23 10:06:50;;;;;;;;;;;16.30;99.90;;;;;;20819021;28;20128;-86
2022/05/23 10:16:55;;;;;;;5.25;1.65;;;16.80;99.90;;;;;;20838855;28;19913;-85
2022/05/23 10:27:44;;;;;;;2.80;1.20;;;17.20;99.90;;;;;;20820262;28;20029;-84
2022/05/23 10:37:46;;;;;;;3.30;1.35;;;17.80;99.90;;;;;;20798154;28;20041;-82
2022/05/23 10:48:22;;;;;;;3.50;1.13;;;18.60;99.90;;;;;;20834815;28;20370;-82
2022/05/23 10:58:37;;;;;;;6.57;1.25;;;19.40;99.90;;;;;;20837629;28;20440;-80
2022/05/23 11:09:06;;;;;;;5.15;1.80;;;20.90;99.90;;;;;;20837281;28;20026;-82
2022/05/23 11:19:35;;;;;;;2.22;1.20;;;22.60;99.90;;;;;;20829791;28;20033;-83
2022/05/23 11:39:59;;;;;;;3.45;1.58;;;23.40;99.90;;;;;;20832986;28;20585;-84
2022/05/23 11:50:30;;;;;;;4.55;1.60;;;22.80;99.90;;;;;;20821372;28;20053;-84
2022/05/23 12:00:37;;;;;;;11.43;2.05;;;23.80;99.90;;;;;;20826247;28;20037;-83
2022/05/23 12:10:43;;;;;;;9.43;2.55;;;23.70;99.90;;;;;;20828864;28;20033;-82
2022/05/23 12:20:46;;;;;;;7.07;2.30;;;23.40;99.90;;;;;;20832385;28;20112;-83
2022/05/23 12:31:06;;;;;;;8.98;2.15;;;24.00;99.90;;;;;;20838785;28;20064;-82
2022/05/23 12:41:22;;;;;;;9.02;3.22;;;24.20;99.90;;;;;;20842920;28;20401;-82
2022/05/23 12:51:52;;;;;;;4.85;2.17;;;24.50;99.90;;;;;;20844022;28;20394;-83
2022/05/23 13:01:59;;;;;;;5.13;2.20;;;24.90;99.90;;;;;;20849272;28;20036;-84
2022/05/23 13:12:06;;;;;;;4.28;1.70;;;25.90;99.90;;;;;;20853168;28;20401;-83
2022/05/23 13:22:20;;;;;;;8.05;2.85;;;26.00;99.90;;;;;;20822196;28;20045;-85
2022/05/23 13:32:21;;;;;;;5.38;2.53;;;25.50;99.90;;;;;;20839560;28;20038;-82
2022/05/23 13:42:25;;;;;;;6.50;2.10;;;23.60;99.90;;;;;;20844207;28;20072;-84
2022/05/23 13:52:41;;;;;;;4.78;2.20;;;23.20;99.90;;;;;;20799611;28;20220;-82
2022/05/23 14:02:53;;;;;;;7.85;2.10;;;22.90;99.90;;;;;;20802469;28;20037;-83
2022/05/23 14:12:57;;;;;;;8.38;2.95;;;21.80;99.90;;;;;;20869377;28;20051;-85
2022/05/23 14:23:32;;;;;;;8.80;3.00;;;21.40;99.90;;;;;;20829371;28;20033;-81
2022/05/23 14:33:46;;;;;;;8.65;3.45;;;20.90;99.90;;;;;;20799757;28;20049;-84
2022/05/23 14:44:22;;;;;;;9.40;3.33;;;20.80;99.90;;;;;;20827324;28;20097;-83
2022/05/23 15:04:46;;;;;;;13.70;3.33;;;20.20;99.90;;;;;;20795377;28;20453;-86
2022/05/23 15:14:49;;;;;;;9.25;3.78;;;20.50;99.90;;;;;;20803079;28;20070;-84
2022/05/23 15:24:51;;;;;;;8.82;3.90;;;20.30;99.90;;;;;;20821819;28;20029;-84
2022/05/23 15:34:53;;;;;;;11.63;3.60;;;19.70;99.90;;;;;;20813490;28;20433;-84
2022/05/23 15:44:55;;;;;;;;;;;19.50;99.90;;;;;;20828592;28;20441;-84
2022/05/23 15:54:55;;;;;;;14.43;4.57;;;19.50;99.90;;;;;;20829727;28;19920;-82
2022/05/23 16:04:56;;;;;;;12.50;4.57;;;19.00;99.90;;;;;;20833324;28;20025;-83
2022/05/23 16:14:58;;;;;;;11.47;5.03;;;19.40;99.90;;;;;;20831404;28;20043;-82
2022/05/23 16:24:59;;;;;;;16.42;4.65;;;20.00;99.90;;;;;;20855066;28;20049;-82
2022/05/23 16:45:20;;;;;;;15.57;3.70;;;20.20;99.90;;;;;;20845589;28;20378;-82
2022/05/23 16:55:21;;;;;;;14.75;4.43;;;20.40;99.90;;;;;;20843910;28;20065;-83
2022/05/23 17:05:24;;;;;;;14.73;4.43;;;20.40;99.90;;;;;;20851564;28;20041;-82
2022/05/23 17:15:25;;;;;;;12.75;4.43;;;20.50;99.90;;;;;;20855662;28;20061;-84
2022/05/23 17:25:26;;;;;;;10.37;4.53;;;20.20;99.90;;;;;;20827099;28;20021;-85
2022/05/23 17:35:26;;;;;;;9.57;4.37;;;19.80;99.90;;;;;;20854562;28;20045;-83
2022/05/23 17:45:28;;;;;;;10.23;3.97;;;19.70;99.90;;;;;;20830393;28;20044;-89
2022/05/23 17:55:30;;;;;;;11.32;3.58;;;19.60;99.90;;;;;;20828778;28;20033;-84
2022/05/23 18:05:31;;;;;;;8.15;2.30;;;19.50;99.90;;;;;;20814357;28;20034;-86
2022/05/23 18:25:58;;;;;;;9.32;3.40;;;19.00;99.90;;;;;;20831490;28;20254;-87
2022/05/23 18:35:59;;;;;;;10.00;4.05;;;18.60;99.90;;;;;;20828747;28;20025;-86
2022/05/23 18:46:00;;;;;;;12.73;3.93;;;18.50;99.90;;;;;;20816587;28;20554;-85
2022/05/23 18:56:01;;;;;;;8.97;3.27;;;18.50;99.90;;;;;;20828021;28;20044;-87
2022/05/23 19:06:02;;;;;;;7.87;2.70;;;18.40;99.90;;;;;;20830486;28;20025;-85
2022/05/23 19:16:03;;;;;;;8.57;3.60;;;18.00;99.90;;;;;;20835236;28;20128;-84
2022/05/23 19:26:04;;;;;;;11.80;3.17;;;17.70;99.90;;;;;;20829625;28;20033;-84
2022/05/23 19:36:06;;;;;;;8.67;3.27;;;17.70;99.90;;;;;;20832602;28;20093;-86
2022/05/23 19:46:11;;;;;;;10.38;3.45;;;17.40;99.90;;;;;;20834960;28;20163;-84
2022/05/23 19:56:11;;;;;;;7.75;3.10;;;17.50;99.90;;;;;;20850130;28;20029;-83
2022/05/23 20:16:31;;;;;;;11.02;3.67;;;17.60;99.90;;;;;;20832867;28;20030;-84
2022/05/23 20:26:32;;;;;;;7.03;2.73;;;17.40;99.90;;;;;;20783555;28;20057;-84
2022/05/23 20:36:36;;;;;;;8.00;3.28;;;17.40;99.90;;;;;;20813970;28;20057;-84
2022/05/23 20:46:37;;;;;;;8.90;4.03;;;17.50;99.90;;;;;;20817298;28;20521;-81
2022/05/23 20:56:38;;;;;;;7.50;3.03;;;17.30;99.90;;;;;;20842478;28;20449;-81
2022/05/23 21:06:39;;;;;;;5.93;2.10;;;17.40;99.90;;;;;;20866225;28;20486;-81
2022/05/23 21:16:42;;;;;;;2.70;1.20;;;17.40;99.90;;;;;;20867464;28;20060;-82
2022/05/23 21:26:44;;;;;;;4.22;1.10;;;17.30;99.90;;;;;;20843142;28;20025;-83
2022/05/23 21:36:45;;;;;;;9.88;2.30;;;17.10;99.90;;;;;;20850785;28;20030;-83
2022/05/23 21:46:46;;;;;;;2.10;1.37;;;16.70;99.90;;;;;;20862524;28;20453;-82
2022/05/23 21:56:54;;;;;;;5.85;1.60;;;16.60;99.90;;;;;;20846812;28;20029;-82
2022/05/23 22:06:57;;;;;;;6.85;1.52;;;16.40;99.90;;;;;;20847244;28;20375;-83
2022/05/23 22:16:59;;;;;;;2.72;1.25;;;16.30;99.90;;;;;;20852259;28;20099;-83
2022/05/23 22:26:59;;;;;;;4.37;1.20;;;16.30;99.90;;;;;;20843827;28;20436;-82
2022/05/23 22:37:00;;;;;;;2.00;1.37;;;16.40;99.90;;;;;;20869758;28;20034;-83
2022/05/23 22:47:05;;;;;;;5.43;1.30;;;16.40;99.90;;;;;;20843832;28;20033;-81
2022/05/23 22:57:18;;;;;;;10.10;1.58;;;16.40;99.90;;;;;;20844681;28;20034;-81
2022/05/23 23:07:20;;;;;;;4.70;1.67;;;16.20;99.90;;;;;;20851144;28;20040;-82
2022/05/23 23:17:22;;;;;;;4.75;1.92;;;16.10;99.90;;;;;;20862195;28;20421;-82
2022/05/23 23:27:23;;;;;;;8.57;1.73;;;15.90;99.90;;;;;;20841442;28;20051;-82
2022/05/23 23:47:48;;;;;;;6.07;2.13;;;16.00;99.90;;;;;;20861946;28;20045;-82
2022/05/23 23:57:49;;;;;;;7.68;1.52;;;16.10;99.90;;;;;;20844844;28;20025;-83
